METAR Data
IDs: Format: Raw Decoded Include TAF

Data at: 1249 UTC 16 Jul 2019

KALM 161235Z AUTO 33004KT 10SM CLR 24/11 A3005 RMK AO2
KALM 161215Z AUTO 33005KT 10SM CLR 25/11 A3004 RMK AO2
KALM 161155Z AUTO 35007KT 10SM CLR 25/11 A3004 RMK AO2
KALM 161135Z AUTO 01005KT 10SM CLR 24/13 A3003 RMK AO2
KALM 161115Z AUTO 02004KT 10SM CLR 24/13 A3002 RMK AO2
KALM 161055Z AUTO 04005KT 10SM CLR 24/13 A3002 RMK AO2
KALM 161035Z AUTO 36004KT 10SM CLR 25/12 A3002 RMK AO2
KALM 161015Z AUTO 36005KT 10SM CLR 24/12 A3002 RMK AO2
KALM 160955Z AUTO 03005KT 10SM CLR 24/12 A3002 RMK AO2
KALM 160935Z AUTO 05005KT 10SM CLR 24/12 A3002 RMK AO2
KALM 160915Z AUTO 04006KT 10SM CLR 24/13 A3003 RMK AO2
KALM 160855Z AUTO 34008KT 10SM CLR 24/13 A3003 RMK AO2
KALM 160835Z AUTO 32008KT 10SM CLR 25/13 A3003 RMK AO2
KALM 160755Z AUTO 17003KT 10SM CLR 28/07 A3003 RMK AO2
KALM 160735Z AUTO 00000KT 10SM CLR 28/08 A3003 RMK AO2
KALM 160715Z AUTO 00000KT 10SM CLR 28/08 A3003 RMK AO2
KALM 160655Z AUTO 12005KT 10SM CLR 28/09 A3003 RMK AO2
KALM 160635Z AUTO 07005KT 10SM CLR 28/09 A3004 RMK AO2
KALM 160615Z AUTO 08005KT 10SM FEW120 29/09 A3005 RMK AO2
KALM 160555Z AUTO 10009KT 10SM SCT120 29/10 A3005 RMK AO2
KALM 160535Z AUTO 10004KT 10SM CLR 29/10 A3006 RMK AO2
KALM 160515Z AUTO 06010G16KT 10SM FEW120 29/11 A3006 RMK AO2
KALM 160455Z AUTO 05008KT 10SM SCT120 28/12 A3007 RMK AO2
KALM 160435Z AUTO 04013G20KT 10SM BKN120 28/12 A3006 RMK AO2
KALM 160415Z AUTO 04012G19KT 10SM FEW046 FEW065 OVC110 28/13 A3006 RMK AO2
KALM 160355Z AUTO 01015KT 9SM -RA FEW003 SCT030 BKN050 28/13 A3004 RMK AO2
KALM 160335Z AUTO 33021G27KT 6SM -RA FEW002 SCT075 BKN100 30/12 A3001 RMK AO2
KALM 160315Z AUTO 03006KT 8SM SCT120 32/09 A3000 RMK AO2
KALM 160255Z AUTO 17007KT 10SM CLR 29/08 A2997 RMK AO2 LTG DSNT N
KALM 160235Z AUTO 19005KT 10SM CLR 30/06 A2997 RMK AO2
KALM 160215Z AUTO 18006KT 10SM CLR 32/06 A2997 RMK AO2
KALM 160155Z AUTO 18004KT 10SM CLR 33/06 A2997 RMK AO2
KALM 160135Z AUTO 17005KT 10SM CLR 32/07 A2996 RMK AO2
KALM 160115Z AUTO 16007KT 10SM CLR 34/08 A2996 RMK AO2
KALM 160055Z AUTO 19004KT 10SM CLR 35/06 A2996 RMK AO2
KALM 160035Z AUTO 24003KT 10SM CLR 36/05 A2996 RMK AO2
KALM 160015Z AUTO 23007KT 10SM CLR 37/05 A2996 RMK AO2
KALM 152355Z AUTO 27004KT 10SM CLR 37/05 A2996 RMK AO2
KALM 152335Z AUTO 13005KT 10SM CLR 37/06 A2996 RMK AO2
KALM 152315Z AUTO 22005KT 10SM CLR 37/06 A2997 RMK AO2
KALM 152255Z AUTO 01003KT 10SM CLR 37/05 A2998 RMK AO2
KALM 152235Z AUTO 35003KT 10SM CLR 37/06 A2998 RMK AO2
KALM 152215Z AUTO 27005KT 10SM CLR 37/07 A2999 RMK AO2
KALM 152155Z AUTO 20004KT 10SM CLR 38/07 A3000 RMK AO2
KALM 152135Z AUTO 12004KT 10SM CLR 37/07 A3001 RMK AO2
KALM 152115Z AUTO 33004KT 10SM CLR 36/07 A3002 RMK AO2
KALM 152055Z AUTO 25011G15KT 10SM CLR 37/07 A3003 RMK AO2 LTG DSNT NE
KALM 152035Z AUTO 17005KT 020V030 10SM CLR 36/08 A3004 RMK AO2 LTG DSNT NE
KALM 152015Z AUTO 21008KT 030V030 10SM CLR 35/08 A3005 RMK AO2
KALM 151955Z AUTO 13005KT 10SM CLR 35/08 A3006 RMK AO2
KALM 151935Z AUTO 22005KT 10SM CLR 35/08 A3007 RMK AO2
KALM 151915Z AUTO 22006KT 10SM CLR 34/08 A3008 RMK AO2
KALM 151855Z AUTO 26006KT 10SM CLR 34/08 A3009 RMK AO2
KALM 151835Z AUTO 31005KT 10SM CLR 33/07 A3010 RMK AO2
KALM 151815Z AUTO 16007KT 10SM CLR 33/09 A3011 RMK AO2
KALM 151755Z AUTO 20007KT 10SM CLR 33/09 A3011 RMK AO2
KALM 151735Z AUTO 17004KT 10SM CLR 33/09 A3012 RMK AO2
KALM 151715Z AUTO 19006KT 10SM CLR 32/10 A3012 RMK AO2
KALM 151655Z AUTO 15006KT 10SM CLR 32/09 A3013 RMK AO2
KALM 151635Z AUTO 15006KT 10SM CLR 31/10 A3013 RMK AO2
KALM 151615Z AUTO 21005KT 10SM CLR 30/10 A3013 RMK AO2
KALM 151555Z AUTO 16005KT 10SM CLR 30/10 A3013 RMK AO2
KALM 151535Z AUTO 22006KT 10SM CLR 29/10 A3014 RMK AO2
KALM 151515Z AUTO 00000KT 10SM CLR 28/10 A3014 RMK AO2
KALM 151455Z AUTO 21005KT 10SM CLR 27/10 A3015 RMK AO2
KALM 151435Z AUTO 00000KT 10SM CLR 25/10 A3015 RMK AO2
KALM 151415Z AUTO 00000KT 10SM FEW120 25/10 A3014 RMK AO2
KALM 151355Z AUTO 00000KT 10SM CLR 24/10 A3014 RMK AO2
KALM 151335Z AUTO 32003KT 10SM CLR 23/10 A3014 RMK AO2
KALM 151315Z AUTO 31006KT 10SM CLR 22/10 A3013 RMK AO2
KALM 151255Z AUTO 32005KT 10SM CLR 22/10 A3013 RMK AO2
KALM 151235Z AUTO 32008KT 10SM CLR 21/10 A3012 RMK AO2
KALM 151215Z AUTO 34005KT 10SM CLR 20/10 A3012 RMK AO2
KALM 151155Z AUTO 33006KT 10SM CLR 21/10 A3011 RMK AO2
KALM 151135Z AUTO 35006KT 10SM CLR 20/10 A3010 RMK AO2
KALM 151115Z AUTO 00000KT 10SM CLR 20/10 A3010 RMK AO2
KALM 151055Z AUTO 00000KT 10SM CLR 21/10 A3009 RMK AO2
KALM 151035Z AUTO 00000KT 10SM CLR 20/10 A3009 RMK AO2
KALM 151015Z AUTO 00000KT 10SM CLR 20/10 A3009 RMK AO2
KALM 150955Z AUTO 00000KT 10SM CLR 21/10 A3009 RMK AO2
KALM 150935Z AUTO 00000KT 10SM CLR 21/10 A3009 RMK AO2
KALM 150915Z AUTO 15004KT 10SM CLR 20/10 A3010 RMK AO2
KALM 150855Z AUTO 12003KT 10SM CLR 21/10 A3011 RMK AO2
KALM 150835Z AUTO 02003KT 10SM CLR 23/10 A3011 RMK AO2
KALM 150815Z AUTO 11004KT 10SM CLR 20/10 A3011 RMK AO2
KALM 150755Z AUTO 00000KT 10SM CLR 24/11 A3011 RMK AO2
KALM 150735Z AUTO 00000KT 10SM CLR 23/10 A3011 RMK AO2
KALM 150715Z AUTO 13005KT 10SM CLR 22/11 A3011 RMK AO2
KALM 150655Z AUTO 00000KT 10SM CLR 24/10 A3011 RMK AO2
KALM 150635Z AUTO 30004KT 10SM CLR 26/11 A3010 RMK AO2
KALM 150615Z AUTO 36004KT 10SM CLR 27/11 A3010 RMK AO2
KALM 150555Z AUTO 01006KT 10SM CLR 27/12 A3011 RMK AO2
KALM 150535Z AUTO 01005KT 10SM CLR 27/12 A3010 RMK AO2
KALM 150515Z AUTO 01005KT 10SM CLR 27/12 A3010 RMK AO2
KALM 150455Z AUTO 33006KT 10SM CLR 27/12 A3009 RMK AO2
KALM 150435Z AUTO 28008KT 10SM CLR 27/12 A3009 RMK AO2
KALM 150415Z AUTO 32005KT 10SM CLR 29/10 A3008 RMK AO2
KALM 150355Z AUTO 36006KT 10SM CLR 30/09 A3007 RMK AO2
KALM 150335Z AUTO 35004KT 10SM CLR 29/11 A3007 RMK AO2
KALM 150315Z AUTO 07004KT 10SM CLR 28/12 A3007 RMK AO2
KALM 150255Z AUTO 12003KT 10SM CLR 27/12 A3006 RMK AO2
KALM 150235Z AUTO 19006KT 10SM CLR 28/12 A3005 RMK AO2
KALM 150215Z AUTO 18006KT 10SM CLR 29/13 A3005 RMK AO2
KALM 150155Z AUTO 19009KT 10SM CLR 30/12 A3004 RMK AO2
KALM 150135Z AUTO 19005KT 10SM CLR 31/10 A3005 RMK AO2
KALM 150115Z AUTO 20006KT 10SM CLR 32/11 A3005 RMK AO2
KALM 150055Z AUTO 17005KT 10SM CLR 32/12 A3004 RMK AO2